Time;durP1;ratioP1;P1;durP2;ratioP2;P2;SDS_P1;SDS_P2;PMS_P1;PMS_P2;Temp;Humidity;BMP_temperature;BMP_pressure;BME280_temperature;BME280_humidity;BME280_pressure;Samples;Min_cycle;Max_cycle;Signal;HPM_P1;HPM_P2
2024/03/24 05:07:17;;;;;;;0.40;0.40;;;4.90;99.90;;;;;;5178680;23;20241;-64
2024/03/24 05:09:43;;;;;;;0.40;0.40;;;4.80;99.90;;;;;;4917152;29;20206;-61
2024/03/24 05:12:09;;;;;;;0.30;0.30;;;4.80;99.90;;;;;;4917072;29;20184;-64
2024/03/24 05:14:35;;;;;;;0.30;0.30;;;4.70;99.90;;;;;;4917115;29;20497;-64
2024/03/24 05:17:02;;;;;;;0.30;0.30;;;4.60;99.90;;;;;;4904532;29;20203;-63
2024/03/24 05:19:27;;;;;;;0.40;0.40;;;4.50;99.90;;;;;;4898802;29;20212;-64
2024/03/24 05:21:53;;;;;;;0.40;0.40;;;4.40;99.90;;;;;;4898283;29;20298;-63
2024/03/24 05:24:18;;;;;;;0.50;0.50;;;4.40;99.90;;;;;;4897993;29;20187;-63
2024/03/24 05:26:44;;;;;;;0.37;0.37;;;4.40;99.90;;;;;;4898188;29;20191;-64
2024/03/24 05:29:09;;;;;;;0.30;0.30;;;4.30;99.90;;;;;;4898924;29;20259;-62
2024/03/24 05:31:35;;;;;;;0.30;0.30;;;4.30;99.90;;;;;;4898959;29;20194;-62
2024/03/24 05:34:01;;;;;;;0.30;0.30;;;4.30;99.90;;;;;;4903098;29;20274;-62
2024/03/24 05:36:27;;;;;;;0.30;0.30;;;4.30;99.90;;;;;;4911273;29;20241;-61
2024/03/24 05:38:53;;;;;;;0.40;0.40;;;4.20;99.90;;;;;;4918453;29;20245;-61
2024/03/24 05:41:20;;;;;;;0.30;0.30;;;4.20;99.90;;;;;;4920584;29;20197;-62
2024/03/24 05:43:46;;;;;;;0.40;0.40;;;4.10;99.90;;;;;;4916691;29;20183;-64
2024/03/24 05:46:11;;;;;;;0.43;0.43;;;4.10;99.90;;;;;;4908580;29;20198;-64
2024/03/24 05:48:37;;;;;;;0.40;0.40;;;4.10;99.90;;;;;;4907950;29;20175;-67
2024/03/24 05:51:04;;;;;;;0.40;0.40;;;4.20;99.90;;;;;;4908320;29;20537;-63
2024/03/24 05:53:34;;;;;;;0.30;0.30;;;4.20;99.90;;;;;;4902325;29;20172;-63
2024/03/24 05:56:01;;;;;;;0.30;0.30;;;4.20;99.90;;;;;;4902116;29;20262;-63
2024/03/24 05:58:27;;;;;;;0.40;0.40;;;4.20;99.90;;;;;;4902256;29;20168;-64
2024/03/24 06:00:53;;;;;;;0.40;0.40;;;4.20;99.90;;;;;;4903929;29;20181;-62
2024/03/24 06:03:19;;;;;;;0.40;0.40;;;4.20;99.90;;;;;;4910055;29;20177;-65
2024/03/24 06:05:48;;;;;;;0.30;0.30;;;4.30;99.90;;;;;;4908600;29;20685;-63
2024/03/24 06:08:14;;;;;;;0.40;0.40;;;4.40;99.90;;;;;;4906832;29;20211;-63
2024/03/24 06:10:43;;;;;;;0.37;0.37;;;4.50;99.90;;;;;;4906739;29;20212;-63
2024/03/24 06:13:09;;;;;;;0.40;0.40;;;4.60;99.90;;;;;;4901760;29;20273;-65
2024/03/24 06:15:35;;;;;;;0.40;0.40;;;4.70;99.90;;;;;;4901375;29;20254;-62
2024/03/24 06:18:04;;;;;;;0.30;0.30;;;4.80;99.90;;;;;;4901409;29;20797;-63
2024/03/24 06:20:34;;;;;;;0.30;0.30;;;4.80;99.90;;;;;;4901714;29;20181;-62
2024/03/24 06:23:03;;;;;;;0.40;0.40;;;5.00;99.90;;;;;;4901327;29;20210;-63
2024/03/24 06:25:30;;;;;;;0.40;0.40;;;5.10;99.90;;;;;;4902834;29;20262;-62
2024/03/24 06:27:56;;;;;;;0.47;0.47;;;5.10;99.90;;;;;;4903946;29;20179;-63
2024/03/24 06:30:22;;;;;;;0.40;0.40;;;5.20;99.90;;;;;;4901485;29;20253;-63
2024/03/24 06:32:48;;;;;;;0.40;0.40;;;5.30;99.90;;;;;;4901032;29;20174;-62
2024/03/24 06:35:14;;;;;;;0.30;0.30;;;5.30;99.90;;;;;;4900610;29;20705;-64
2024/03/24 06:37:40;;;;;;;0.30;0.30;;;5.40;99.90;;;;;;4901240;29;20248;-62
2024/03/24 06:40:09;;;;;;;0.30;0.30;;;5.40;99.90;;;;;;4901002;29;20204;-64
2024/03/24 06:42:43;;;;;;;0.47;0.47;;;5.50;99.90;;;;;;4900899;29;20170;-63
2024/03/24 06:45:09;;;;;;;0.40;0.40;;;5.60;99.90;;;;;;4898623;29;20186;-64
2024/03/24 06:47:35;;;;;;;0.50;0.50;;;5.70;99.90;;;;;;4900282;29;20198;-63
2024/03/24 06:50:02;;;;;;;0.40;0.40;;;5.70;99.90;;;;;;4900314;29;20218;-63
2024/03/24 06:52:29;;;;;;;0.30;0.30;;;5.90;99.90;;;;;;4899246;29;20544;-64
2024/03/24 06:54:54;;;;;;;0.40;0.40;;;6.00;99.90;;;;;;4900133;29;20719;-62
2024/03/24 06:57:20;;;;;;;0.50;0.50;;;6.20;99.90;;;;;;4900566;29;20195;-63
2024/03/24 06:59:47;;;;;;;0.30;0.30;;;6.30;99.90;;;;;;4900630;29;20187;-64
2024/03/24 07:02:13;;;;;;;0.40;0.40;;;6.50;99.90;;;;;;4900286;29;20183;-63
2024/03/24 07:04:38;;;;;;;0.30;0.30;;;6.60;99.90;;;;;;4899881;29;20231;-64
2024/03/24 07:07:04;;;;;;;0.30;0.30;;;6.70;99.90;;;;;;4900242;29;20210;-65
2024/03/24 07:09:30;;;;;;;0.30;0.30;;;6.90;99.90;;;;;;4895383;29;20672;-62
2024/03/24 07:11:55;;;;;;;0.40;0.40;;;7.00;99.90;;;;;;4898361;29;20186;-60
2024/03/24 07:14:21;;;;;;;0.40;0.40;;;7.10;99.90;;;;;;4885687;29;20184;-62
2024/03/24 07:16:46;;;;;;;0.30;0.30;;;7.10;99.90;;;;;;4880653;29;20539;-64
2024/03/24 07:19:12;;;;;;;0.30;0.30;;;7.10;99.90;;;;;;4881198;29;20179;-62
2024/03/24 07:21:38;;;;;;;0.50;0.50;;;7.10;99.90;;;;;;4881427;29;20622;-63
2024/03/24 07:24:05;;;;;;;0.30;0.30;;;7.10;99.90;;;;;;4881196;29;20420;-61
2024/03/24 07:26:30;;;;;;;0.35;0.35;;;7.10;99.90;;;;;;4880748;29;20281;-62
2024/03/24 07:28:56;;;;;;;0.40;0.40;;;7.10;99.90;;;;;;4880962;29;20195;-65
2024/03/24 07:31:22;;;;;;;0.40;0.40;;;7.10;99.90;;;;;;4881043;29;20649;-64
2024/03/24 07:33:47;;;;;;;0.30;0.30;;;7.10;99.90;;;;;;4881233;29;20191;-63
2024/03/24 07:36:13;;;;;;;0.30;0.30;;;7.50;99.90;;;;;;4880806;29;20199;-62
2024/03/24 07:38:39;;;;;;;0.30;0.30;;;7.70;99.90;;;;;;4880888;29;20172;-65
2024/03/24 07:41:04;;;;;;;0.30;0.30;;;8.00;99.90;;;;;;4881428;29;20168;-66
2024/03/24 07:43:31;;;;;;;0.30;0.30;;;8.60;99.90;;;;;;4880884;29;20173;-65
2024/03/24 07:45:56;;;;;;;0.30;0.30;;;9.50;99.90;;;;;;4880391;29;20502;-62
2024/03/24 07:48:22;;;;;;;0.30;0.30;;;10.60;99.90;;;;;;4880931;29;20812;-65
2024/03/24 07:50:47;;;;;;;0.30;0.20;;;11.70;99.90;;;;;;4880731;29;20201;-64
2024/03/24 07:53:13;;;;;;;0.30;0.30;;;12.70;99.90;;;;;;4880817;29;20210;-67
2024/03/24 07:55:43;;;;;;;0.30;0.30;;;13.80;96.60;;;;;;4879704;29;20199;-65
2024/03/24 07:58:09;;;;;;;0.30;0.30;;;15.10;94.20;;;;;;4880621;29;20180;-62
2024/03/24 08:00:34;;;;;;;0.60;0.60;;;16.10;93.20;;;;;;4880586;29;20459;-64
2024/03/24 08:03:00;;;;;;;0.30;0.30;;;17.00;90.70;;;;;;4880604;29;20869;-64
2024/03/24 08:05:26;;;;;;;0.30;0.20;;;17.80;84.50;;;;;;4880006;29;20223;-67
2024/03/24 08:07:51;;;;;;;0.30;0.20;;;18.50;83.60;;;;;;4880336;29;20575;-63
2024/03/24 08:10:17;;;;;;;0.40;0.20;;;18.70;81.20;;;;;;4879785;29;20529;-65
2024/03/24 08:12:43;;;;;;;0.30;0.30;;;19.20;77.80;;;;;;4879069;29;20179;-66
2024/03/24 08:15:08;;;;;;;0.30;0.30;;;19.70;76.20;;;;;;4880019;29;20178;-66
2024/03/24 08:17:34;;;;;;;0.30;0.20;;;19.80;74.00;;;;;;4879023;29;20382;-67
2024/03/24 08:20:00;;;;;;;0.30;0.20;;;19.80;76.90;;;;;;4880151;29;20601;-66
2024/03/24 08:22:25;;;;;;;0.30;0.20;;;20.00;73.40;;;;;;4880017;29;20195;-68
2024/03/24 08:24:52;;;;;;;0.30;0.30;;;20.00;73.40;;;;;;4879514;29;20215;-69
2024/03/24 08:27:20;;;;;;;0.30;0.20;;;20.00;73.70;;;;;;4879961;29;20584;-61
2024/03/24 08:29:45;;;;;;;0.30;0.20;;;19.60;73.70;;;;;;4879966;29;20460;-63
2024/03/24 08:32:11;;;;;;;0.30;0.20;;;19.40;74.30;;;;;;4880421;29;20459;-62
2024/03/24 08:34:37;;;;;;;0.30;0.30;;;19.30;76.80;;;;;;4879676;29;20175;-62
2024/03/24 08:37:02;;;;;;;0.30;0.30;;;19.40;74.90;;;;;;4879922;29;20196;-60
2024/03/24 08:39:28;;;;;;;0.30;0.30;;;19.30;73.20;;;;;;4880022;29;20182;-62
2024/03/24 08:41:57;;;;;;;0.30;0.30;;;18.90;75.00;;;;;;4881266;29;20186;-65
2024/03/24 08:44:23;;;;;;;0.30;0.30;;;18.50;74.00;;;;;;4895499;29;20179;-59
2024/03/24 08:46:48;;;;;;;0.30;0.30;;;17.50;77.00;;;;;;4897876;29;20431;-63
2024/03/24 08:49:14;;;;;;;0.30;0.20;;;17.30;78.60;;;;;;4896944;29;20438;-59
2024/03/24 08:51:41;;;;;;;0.30;0.30;;;17.10;77.60;;;;;;4898429;29;20186;-60
2024/03/24 08:54:06;;;;;;;0.30;0.30;;;16.40;77.50;;;;;;4879927;29;20283;-62
2024/03/24 08:56:32;;;;;;;0.30;0.30;;;15.80;79.40;;;;;;4879300;29;20576;-63
2024/03/24 08:58:58;;;;;;;0.30;0.30;;;15.30;81.20;;;;;;4882987;29;20570;-63
2024/03/24 09:01:23;;;;;;;0.30;0.30;;;14.90;80.60;;;;;;4896228;29;20187;-60
2024/03/24 09:03:49;;;;;;;0.30;0.30;;;14.40;83.30;;;;;;4894232;29;20186;-62
2024/03/24 09:06:16;;;;;;;0.30;0.30;;;14.00;84.60;;;;;;4878986;29;20201;-60
2024/03/24 09:08:41;;;;;;;0.40;0.40;;;13.50;87.80;;;;;;4879277;29;20199;-64
2024/03/24 09:11:07;;;;;;;0.30;0.30;;;13.00;86.60;;;;;;4879396;29;20812;-60
2024/03/24 09:13:33;;;;;;;0.30;0.30;;;12.40;89.40;;;;;;4879313;29;20675;-64
2024/03/24 09:15:58;;;;;;;0.30;0.30;;;11.90;88.80;;;;;;4883899;29;20191;-61
2024/03/24 09:18:24;;;;;;;0.30;0.30;;;11.70;90.10;;;;;;4897647;29;20178;-64
2024/03/24 09:20:49;;;;;;;0.30;0.30;;;11.40;90.30;;;;;;4897848;29;20519;-59
2024/03/24 09:23:16;;;;;;;0.30;0.30;;;11.10;90.90;;;;;;4897651;29;20197;-60
2024/03/24 09:25:41;;;;;;;0.30;0.30;;;10.80;90.60;;;;;;4896521;29;20213;-61
2024/03/24 09:28:07;;;;;;;0.30;0.30;;;10.40;91.60;;;;;;4896543;29;20482;-60
2024/03/24 09:30:33;;;;;;;0.30;0.30;;;10.20;91.90;;;;;;4879402;29;20510;-63
2024/03/24 09:32:58;;;;;;;0.30;0.30;;;9.90;92.60;;;;;;4878715;29;20455;-59
2024/03/24 09:35:24;;;;;;;0.50;0.50;;;9.70;93.00;;;;;;4878368;29;20548;-63
2024/03/24 09:37:50;;;;;;;0.30;0.30;;;9.60;92.40;;;;;;4879058;29;20213;-58
2024/03/24 09:40:15;;;;;;;0.40;0.40;;;9.40;94.20;;;;;;4879144;29;20215;-59
2024/03/24 09:42:41;;;;;;;0.37;0.37;;;9.30;94.50;;;;;;4879096;29;20186;-60
2024/03/24 09:45:10;;;;;;;0.40;0.40;;;9.40;94.80;;;;;;4878722;29;20187;-64
2024/03/24 09:47:37;;;;;;;0.40;0.40;;;9.40;94.60;;;;;;4878043;29;20227;-59
2024/03/24 09:50:02;;;;;;;0.30;0.30;;;9.30;94.90;;;;;;4879133;29;20793;-61
2024/03/24 09:52:33;;;;;;;0.30;0.30;;;9.20;95.60;;;;;;4879283;29;20191;-61
2024/03/24 09:54:59;;;;;;;0.30;0.30;;;9.20;95.40;;;;;;4890431;29;20262;-60
2024/03/24 09:57:35;;;;;;;0.30;0.30;;;9.10;96.20;;;;;;4897791;29;20234;-61
2024/03/24 10:00:06;;;;;;;0.30;0.30;;;9.10;96.40;;;;;;4897709;29;20275;-62
2024/03/24 10:02:31;;;;;;;0.30;0.30;;;9.10;96.50;;;;;;4898096;29;20223;-62
2024/03/24 10:04:58;;;;;;;0.40;0.40;;;9.20;96.70;;;;;;4897715;29;20583;-62
2024/03/24 10:07:23;;;;;;;0.30;0.30;;;9.30;96.50;;;;;;4897693;29;20573;-59
2024/03/24 10:09:50;;;;;;;0.30;0.30;;;9.40;96.30;;;;;;4884732;29;20307;-62
2024/03/24 10:12:15;;;;;;;0.30;0.30;;;9.30;96.30;;;;;;4879110;29;20271;-62
2024/03/24 10:14:41;;;;;;;1.63;0.53;;;9.30;96.00;;;;;;4878594;29;20256;-58
2024/03/24 10:17:11;;;;;;;0.30;0.30;;;9.40;96.10;;;;;;4878819;29;20204;-62
2024/03/24 10:19:37;;;;;;;0.30;0.30;;;9.30;96.50;;;;;;4881044;29;20185;-63
2024/03/24 10:22:03;;;;;;;0.40;0.40;;;9.30;96.60;;;;;;4881251;29;20186;-62
2024/03/24 10:24:29;;;;;;;0.30;0.30;;;9.30;96.20;;;;;;4893714;29;20223;-60
2024/03/24 10:26:59;;;;;;;0.30;0.30;;;9.30;96.10;;;;;;4900590;29;20308;-62
2024/03/24 10:29:25;;;;;;;0.40;0.40;;;9.20;96.50;;;;;;4899755;29;20483;-61
2024/03/24 10:31:50;;;;;;;0.30;0.30;;;9.20;97.00;;;;;;4901368;29;20444;-61
2024/03/24 10:34:16;;;;;;;0.30;0.30;;;9.30;96.80;;;;;;4901043;29;20633;-61
2024/03/24 10:36:43;;;;;;;0.30;0.30;;;9.40;96.70;;;;;;4900386;29;20207;-63
2024/03/24 10:39:08;;;;;;;0.30;0.30;;;9.30;96.70;;;;;;4888052;29;20188;-60
2024/03/24 10:41:35;;;;;;;0.40;0.40;;;9.30;97.10;;;;;;4882076;29;20189;-62
2024/03/24 10:44:02;;;;;;;0.30;0.30;;;9.30;97.20;;;;;;4882089;29;20180;-61
2024/03/24 10:46:32;;;;;;;0.50;0.50;;;9.30;97.00;;;;;;4881689;29;20782;-63
2024/03/24 10:49:01;;;;;;;0.30;0.30;;;9.30;97.50;;;;;;4882058;29;20447;-63
2024/03/24 10:51:31;;;;;;;0.30;0.30;;;9.30;97.60;;;;;;4881987;29;20177;-64
2024/03/24 10:54:02;;;;;;;0.30;0.30;;;9.40;97.70;;;;;;4893283;29;20495;-61
2024/03/24 10:56:32;;;;;;;0.30;0.30;;;9.40;97.80;;;;;;4900354;29;20197;-59
2024/03/24 10:59:01;;;;;;;0.30;0.30;;;9.40;97.40;;;;;;4900624;29;20176;-59
2024/03/24 11:01:27;;;;;;;0.30;0.30;;;9.40;97.20;;;;;;4900567;29;20544;-65
2024/03/24 11:03:57;;;;;;;0.40;0.40;;;9.40;97.30;;;;;;4900226;29;20489;-63
2024/03/24 11:06:25;;;;;;;0.40;0.40;;;9.40;96.90;;;;;;4899836;29;20432;-60
2024/03/24 11:08:51;;;;;;;0.30;0.30;;;9.50;97.00;;;;;;4887095;29;20220;-61
2024/03/24 11:11:18;;;;;;;0.30;0.30;;;9.50;97.30;;;;;;4881560;29;20414;-61
2024/03/24 11:13:44;;;;;;;0.30;0.30;;;9.50;96.80;;;;;;4881663;29;20542;-62
2024/03/24 11:16:10;;;;;;;0.30;0.30;;;9.50;96.90;;;;;;4880994;29;20845;-60
2024/03/24 11:18:36;;;;;;;0.30;0.30;;;9.50;96.60;;;;;;4881529;29;20409;-63
2024/03/24 11:21:05;;;;;;;0.30;0.30;;;9.40;96.60;;;;;;4881335;29;20409;-60
2024/03/24 11:23:39;;;;;;;0.30;0.30;;;9.40;96.40;;;;;;4893563;29;20184;-61
2024/03/24 11:26:08;;;;;;;0.30;0.30;;;9.30;96.50;;;;;;4899738;29;20223;-59
2024/03/24 11:28:48;;;;;;;0.40;0.40;;;9.20;97.30;;;;;;4900106;29;20172;-64
2024/03/24 11:31:14;;;;;;;0.45;0.45;;;9.20;97.00;;;;;;4899884;29;20190;-61
2024/03/24 11:33:40;;;;;;;0.40;0.40;;;9.00;96.90;;;;;;4899867;29;20183;-61
2024/03/24 11:36:16;;;;;;;0.30;0.30;;;8.90;97.50;;;;;;4899560;29;20282;-62
2024/03/24 11:38:41;;;;;;;0.30;0.30;;;8.90;97.60;;;;;;4884139;29;20413;-64
2024/03/24 11:41:12;;;;;;;0.40;0.40;;;8.90;97.90;;;;;;4880914;29;20219;-61
2024/03/24 11:43:38;;;;;;;0.30;0.30;;;8.90;98.40;;;;;;4881145;29;20209;-62
2024/03/24 11:46:04;;;;;;;0.30;0.30;;;9.00;98.60;;;;;;4880472;29;20714;-60
2024/03/24 11:48:34;;;;;;;0.30;0.30;;;9.10;98.80;;;;;;4880782;29;20176;-62
2024/03/24 11:51:01;;;;;;;0.40;0.40;;;9.30;98.80;;;;;;4880842;29;20577;-62
2024/03/24 11:53:30;;;;;;;0.30;0.30;;;9.50;99.60;;;;;;4896109;29;20259;-63
2024/03/24 11:55:58;;;;;;;0.30;0.30;;;9.70;99.10;;;;;;4898872;29;20821;-60
2024/03/24 11:58:25;;;;;;;0.37;0.37;;;9.90;97.90;;;;;;4899524;29;20392;-63
2024/03/24 12:00:51;;;;;;;0.40;0.40;;;10.00;96.90;;;;;;4899191;29;20436;-59
2024/03/24 12:03:16;;;;;;;0.30;0.30;;;10.00;96.10;;;;;;4899374;29;20931;-63
2024/03/24 12:05:46;;;;;;;0.30;0.30;;;10.00;96.20;;;;;;4897388;29;21038;-59
2024/03/24 12:08:12;;;;;;;0.30;0.30;;;9.80;96.70;;;;;;4883061;29;20275;-61
2024/03/24 12:10:38;;;;;;;0.30;0.30;;;9.60;96.90;;;;;;4880417;29;20504;-61
2024/03/24 12:13:04;;;;;;;0.40;0.40;;;9.40;97.80;;;;;;4880607;29;20425;-61
2024/03/24 12:15:30;;;;;;;0.30;0.30;;;9.20;97.60;;;;;;4880146;29;20172;-62
2024/03/24 12:18:09;;;;;;;0.40;0.40;;;9.20;98.00;;;;;;4880423;29;20266;-61
2024/03/24 12:20:34;;;;;;;0.40;0.40;;;9.20;98.00;;;;;;4880397;29;20184;-61
2024/03/24 12:23:01;;;;;;;0.30;0.30;;;9.10;98.40;;;;;;4895948;29;20184;-62
2024/03/24 12:25:28;;;;;;;0.30;0.30;;;9.10;99.00;;;;;;4898295;29;20194;-63
2024/03/24 12:27:56;;;;;;;0.30;0.30;;;9.10;99.20;;;;;;4898661;29;20268;-61
2024/03/24 12:30:23;;;;;;;0.30;0.30;;;9.20;99.50;;;;;;4898629;29;20258;-62
2024/03/24 12:32:50;;;;;;;0.30;0.30;;;9.10;99.60;;;;;;4898909;29;20259;-60
2024/03/24 12:35:17;;;;;;;0.50;0.50;;;9.10;99.90;;;;;;4898554;29;20180;-61
2024/03/24 12:37:45;;;;;;;0.30;0.30;;;8.90;99.90;;;;;;4898117;29;20552;-63
2024/03/24 12:40:15;;;;;;;0.30;0.30;;;8.90;99.90;;;;;;4896463;29;20503;-60
2024/03/24 12:42:41;;;;;;;0.30;0.30;;;8.60;99.90;;;;;;4898359;29;20231;-60
2024/03/24 12:45:13;;;;;;;0.40;0.40;;;8.50;99.90;;;;;;4898401;29;20209;-62
2024/03/24 12:47:38;;;;;;;0.40;0.40;;;8.40;99.90;;;;;;4898615;29;20199;-61
2024/03/24 12:50:05;;;;;;;0.40;0.40;;;8.30;99.90;;;;;;4898597;29;20214;-60
2024/03/24 12:52:31;;;;;;;0.30;0.30;;;8.30;99.90;;;;;;4897788;29;20674;-60
2024/03/24 12:54:57;;;;;;;0.30;0.30;;;8.20;99.90;;;;;;4897981;29;20186;-63
2024/03/24 12:57:23;;;;;;;0.30;0.30;;;8.20;99.90;;;;;;4898579;29;20198;-60
2024/03/24 12:59:55;;;;;;;0.40;0.40;;;8.20;99.90;;;;;;4897738;29;20662;-63
2024/03/24 13:02:24;;;;;;;0.47;0.47;;;8.20;99.90;;;;;;4898229;29;20190;-61
2024/03/24 13:04:50;;;;;;;0.40;0.40;;;8.20;99.90;;;;;;4898020;29;20187;-62
2024/03/24 13:07:17;;;;;;;0.40;0.40;;;8.30;99.90;;;;;;4898240;29;20214;-61
2024/03/24 13:09:43;;;;;;;0.40;0.40;;;8.30;99.90;;;;;;4898048;29;20677;-61
2024/03/24 13:12:09;;;;;;;0.40;0.40;;;8.20;99.90;;;;;;4898139;29;20175;-61
2024/03/24 13:14:35;;;;;;;0.30;0.30;;;8.20;99.90;;;;;;4894877;29;20915;-61
2024/03/24 13:17:08;;;;;;;0.33;0.33;;;7.90;99.90;;;;;;4879499;29;20202;-61
2024/03/24 13:19:42;;;;;;;0.70;0.70;;;7.70;99.90;;;;;;4879991;29;20191;-64
2024/03/24 13:22:08;;;;;;;0.50;0.50;;;7.50;99.90;;;;;;4881305;29;20185;-62
2024/03/24 13:24:46;;;;;;;0.40;0.40;;;7.40;99.90;;;;;;4883684;29;20650;-62
2024/03/24 13:27:26;;;;;;;0.30;0.30;;;7.40;99.90;;;;;;4879502;29;20202;-61
2024/03/24 13:29:52;;;;;;;0.30;0.30;;;7.60;99.90;;;;;;4885996;29;20224;-63
2024/03/24 13:32:18;;;;;;;0.40;0.40;;;7.80;99.90;;;;;;4897933;29;20697;-61
2024/03/24 13:34:43;;;;;;;0.30;0.30;;;7.90;99.90;;;;;;4898066;29;20210;-63
2024/03/24 13:37:36;;;;;;;0.40;0.40;;;8.10;99.90;;;;;;4898002;29;20261;-63
2024/03/24 13:40:12;;;;;;;0.50;0.50;;;8.10;99.90;;;;;;4897943;29;20190;-62
2024/03/24 13:42:56;;;;;;;0.35;0.35;;;8.20;99.90;;;;;;4897973;29;20170;-61
2024/03/24 13:45:36;;;;;;;0.30;0.30;;;8.20;99.90;;;;;;4884245;29;20194;-63
2024/03/24 13:48:04;;;;;;;0.40;0.40;;;8.20;99.90;;;;;;4885179;29;20653;-62
2024/03/24 13:50:32;;;;;;;0.30;0.30;;;8.30;99.90;;;;;;4897899;29;20213;-63
2024/03/24 13:52:59;;;;;;;0.47;0.47;;;8.50;99.90;;;;;;4897908;29;20171;-61
2024/03/24 13:55:25;;;;;;;0.30;0.30;;;8.70;99.90;;;;;;4901107;29;20593;-62
2024/03/24 13:57:50;;;;;;;0.30;0.30;;;8.90;99.90;;;;;;4901616;29;20186;-61
2024/03/24 14:00:16;;;;;;;0.40;0.40;;;9.00;99.90;;;;;;4887548;29;20188;-62
2024/03/24 14:02:42;;;;;;;0.40;0.40;;;9.00;99.90;;;;;;4882834;29;20188;-60
2024/03/24 14:05:07;;;;;;;0.40;0.40;;;9.10;99.90;;;;;;4882353;29;20691;-63
2024/03/24 14:07:33;;;;;;;0.30;0.30;;;9.20;99.90;;;;;;4882381;29;20211;-62
2024/03/24 14:10:04;;;;;;;0.30;0.30;;;9.20;99.90;;;;;;4882452;29;20258;-63
2024/03/24 14:12:56;;;;;;;0.30;0.30;;;9.20;99.90;;;;;;4882778;29;20660;-60
2024/03/24 14:15:31;;;;;;;0.40;0.40;;;9.20;99.90;;;;;;4898343;29;20638;-62
2024/03/24 14:18:30;;;;;;;0.40;0.40;;;9.30;99.90;;;;;;4901265;29;20492;-61
2024/03/24 14:21:05;;;;;;;0.30;0.30;;;9.40;99.90;;;;;;4901188;29;20419;-60
2024/03/24 14:23:37;;;;;;;0.40;0.40;;;9.50;99.90;;;;;;4901146;29;20391;-62
2024/03/24 14:26:02;;;;;;;0.30;0.30;;;9.50;99.90;;;;;;4900577;29;20722;-60
2024/03/24 14:28:28;;;;;;;0.40;0.40;;;9.50;99.90;;;;;;4896996;29;20190;-61
2024/03/24 14:30:54;;;;;;;0.30;0.30;;;9.40;99.90;;;;;;4882253;29;20464;-63
2024/03/24 14:33:19;;;;;;;0.30;0.30;;;9.30;99.90;;;;;;4882241;29;20191;-63
2024/03/24 14:36:11;;;;;;;0.30;0.30;;;9.40;99.90;;;;;;4881773;29;20284;-63
2024/03/24 14:38:52;;;;;;;0.30;0.30;;;9.50;99.90;;;;;;4872560;29;20190;-64
2024/03/24 14:41:42;;;;;;;0.33;0.33;;;9.60;99.90;;;;;;4881985;29;20217;-61
2024/03/24 14:44:26;;;;;;;0.40;0.40;;;9.70;99.90;;;;;;4892792;29;20934;-63
2024/03/24 14:47:25;;;;;;;0.30;0.30;;;9.70;99.90;;;;;;4900235;29;20283;-63
2024/03/24 14:49:51;;;;;;;0.30;0.30;;;9.70;99.90;;;;;;4901105;29;20207;-61
2024/03/24 14:52:16;;;;;;;0.40;0.40;;;9.70;99.90;;;;;;4900816;29;20172;-61
2024/03/24 14:54:42;;;;;;;0.30;0.30;;;9.50;99.90;;;;;;4900311;29;20227;-59
2024/03/24 14:57:07;;;;;;;0.30;0.30;;;9.40;99.90;;;;;;4900500;29;20192;-62
2024/03/24 14:59:33;;;;;;;0.40;0.40;;;9.40;99.90;;;;;;4899651;29;20190;-63
2024/03/24 15:01:59;;;;;;;0.30;0.30;;;9.40;99.90;;;;;;4882120;29;20233;-64
2024/03/24 15:04:25;;;;;;;0.40;0.40;;;9.40;99.90;;;;;;4881709;29;20176;-64
2024/03/24 15:06:51;;;;;;;0.30;0.30;;;9.30;99.90;;;;;;4881107;29;20444;-62
2024/03/24 15:09:16;;;;;;;0.30;0.30;;;9.30;99.90;;;;;;4881827;29;20199;-60
2024/03/24 15:11:42;;;;;;;0.30;0.30;;;9.40;99.90;;;;;;4881647;29;20176;-62
2024/03/24 15:14:07;;;;;;;0.40;0.40;;;9.30;99.90;;;;;;4895950;29;20181;-61
2024/03/24 15:16:33;;;;;;;0.40;0.40;;;9.40;99.90;;;;;;4899786;29;20198;-62
2024/03/24 15:19:00;;;;;;;0.30;0.30;;;9.40;99.90;;;;;;4900232;29;20316;-63
2024/03/24 15:21:26;;;;;;;0.38;0.38;;;9.30;99.90;;;;;;4900166;29;20324;-62
2024/03/24 15:23:51;;;;;;;0.33;0.33;;;9.30;99.90;;;;;;4898853;29;20203;-61
2024/03/24 15:26:17;;;;;;;0.30;0.30;;;9.30;99.90;;;;;;4899635;29;20206;-64
2024/03/24 15:28:42;;;;;;;0.30;0.30;;;9.30;99.90;;;;;;4886212;29;20191;-63
2024/03/24 15:31:08;;;;;;;0.40;0.40;;;9.20;99.90;;;;;;4881358;29;20211;-60
2024/03/24 15:33:34;;;;;;;0.30;0.30;;;9.20;99.90;;;;;;4881334;29;20657;-62
2024/03/24 15:35:59;;;;;;;0.40;0.40;;;9.20;99.90;;;;;;4880683;29;20223;-62
2024/03/24 15:38:25;;;;;;;0.37;0.37;;;9.20;99.90;;;;;;4881225;29;20215;-60
2024/03/24 15:40:50;;;;;;;0.40;0.40;;;9.30;99.90;;;;;;4881174;29;20181;-62
2024/03/24 15:43:21;;;;;;;0.30;0.30;;;9.30;99.90;;;;;;4892703;29;20179;-63
2024/03/24 15:45:48;;;;;;;0.30;0.30;;;9.40;99.90;;;;;;4900349;29;20199;-60
2024/03/24 15:48:14;;;;;;;0.30;0.30;;;9.40;99.90;;;;;;4901627;29;20706;-62
2024/03/24 15:50:40;;;;;;;0.30;0.30;;;9.50;99.90;;;;;;4899562;29;20212;-60
2024/03/24 15:53:05;;;;;;;0.30;0.30;;;9.60;99.90;;;;;;4899528;29;20199;-62
2024/03/24 15:55:53;;;;;;;0.30;0.30;;;9.60;99.90;;;;;;4899168;29;20176;-62
2024/03/24 15:58:36;;;;;;;0.30;0.30;;;9.50;99.90;;;;;;4899147;29;20283;-61
2024/03/24 16:01:19;;;;;;;0.50;0.50;;;9.50;99.90;;;;;;4899625;29;20183;-61
2024/03/24 16:03:45;;;;;;;0.30;0.30;;;9.40;99.90;;;;;;4899668;29;20177;-61
2024/03/24 16:06:13;;;;;;;0.30;0.30;;;9.20;99.90;;;;;;4898752;29;20278;-63
2024/03/24 16:08:39;;;;;;;0.30;0.30;;;9.00;99.90;;;;;;4899336;29;20557;-60
2024/03/24 16:11:14;;;;;;;0.40;0.40;;;9.00;99.90;;;;;;4899238;29;20233;-61
2024/03/24 16:13:59;;;;;;;0.30;0.30;;;8.80;99.90;;;;;;4883639;29;20178;-60
2024/03/24 16:16:26;;;;;;;0.40;0.40;;;8.70;99.90;;;;;;4887728;29;20199;-65
2024/03/24 16:18:52;;;;;;;0.30;0.30;;;8.70;99.90;;;;;;4882121;29;20172;-63
2024/03/24 16:21:33;;;;;;;0.40;0.40;;;8.60;99.90;;;;;;4881480;29;20241;-61
2024/03/24 16:23:59;;;;;;;0.30;0.30;;;8.50;99.90;;;;;;4880876;29;20164;-59
2024/03/24 16:26:25;;;;;;;0.30;0.30;;;8.40;99.90;;;;;;4885181;29;20315;-61
2024/03/24 16:28:54;;;;;;;0.30;0.30;;;8.50;99.90;;;;;;4902370;29;20264;-61
2024/03/24 16:31:21;;;;;;;0.30;0.30;;;8.50;99.90;;;;;;4905042;29;20515;-60
2024/03/24 16:33:47;;;;;;;0.30;0.30;;;8.60;99.90;;;;;;4906477;29;20186;-60
2024/03/24 16:36:12;;;;;;;0.30;0.30;;;8.70;99.90;;;;;;4909419;29;20721;-62
2024/03/24 16:38:38;;;;;;;0.30;0.30;;;8.70;99.90;;;;;;4907431;29;20179;-63
2024/03/24 16:41:04;;;;;;;0.30;0.30;;;8.80;99.90;;;;;;4906232;29;20187;-61
2024/03/24 16:43:31;;;;;;;0.40;0.40;;;8.90;99.90;;;;;;4908484;29;20198;-61
2024/03/24 16:45:57;;;;;;;0.35;0.35;;;9.00;99.90;;;;;;4903590;29;20290;-62
2024/03/24 16:48:23;;;;;;;0.30;0.30;;;9.00;99.90;;;;;;4900874;29;20279;-64
2024/03/24 16:50:48;;;;;;;0.30;0.30;;;9.10;99.90;;;;;;4900233;29;20210;-59
2024/03/24 16:53:14;;;;;;;0.30;0.30;;;9.10;99.90;;;;;;4900133;29;20182;-62
2024/03/24 16:55:40;;;;;;;0.30;0.30;;;9.10;99.90;;;;;;4901226;29;20202;-61
2024/03/24 16:58:06;;;;;;;0.40;0.40;;;9.10;99.90;;;;;;4903886;29;20172;-61
2024/03/24 17:00:34;;;;;;;0.30;0.30;;;9.00;99.90;;;;;;4903376;29;20175;-65
2024/03/24 17:03:00;;;;;;;0.30;0.30;;;8.80;99.90;;;;;;4904702;29;20238;-62
2024/03/24 17:05:26;;;;;;;0.37;0.37;;;8.70;99.90;;;;;;4898033;29;20218;-60
2024/03/24 17:07:52;;;;;;;0.30;0.30;;;8.70;99.90;;;;;;4881292;29;20204;-61
2024/03/24 17:10:17;;;;;;;0.30;0.30;;;8.60;99.90;;;;;;4881652;29;20196;-63
2024/03/24 17:12:43;;;;;;;0.30;0.30;;;8.60;99.90;;;;;;4880445;29;20243;-60
2024/03/24 17:15:12;;;;;;;0.30;0.30;;;8.50;99.90;;;;;;4879953;29;20175;-62
2024/03/24 17:17:38;;;;;;;0.30;0.30;;;8.40;99.90;;;;;;4879548;29;20202;-61
2024/03/24 17:20:05;;;;;;;0.30;0.30;;;8.30;99.90;;;;;;4885945;29;20179;-63
2024/03/24 17:22:31;;;;;;;0.30;0.30;;;8.30;99.90;;;;;;4898548;29;20422;-61
2024/03/24 17:24:56;;;;;;;0.43;0.43;;;8.20;99.90;;;;;;4897759;29;20179;-62
2024/03/24 17:27:22;;;;;;;0.40;0.40;;;8.10;99.90;;;;;;4897874;29;20194;-60
2024/03/24 17:29:47;;;;;;;0.30;0.30;;;7.80;99.90;;;;;;4898110;29;20302;-60
2024/03/24 17:32:15;;;;;;;0.30;0.30;;;7.60;99.90;;;;;;4898145;29;20620;-59
2024/03/24 17:34:41;;;;;;;0.30;0.30;;;7.20;99.90;;;;;;4897180;29;20551;-60
2024/03/24 17:37:06;;;;;;;0.50;0.50;;;7.00;99.90;;;;;;4898222;29;20222;-61
2024/03/24 17:39:32;;;;;;;0.40;0.40;;;6.70;99.90;;;;;;4898122;29;20814;-59
2024/03/24 17:41:58;;;;;;;0.30;0.30;;;6.60;99.90;;;;;;4898075;29;20206;-62
2024/03/24 17:44:23;;;;;;;0.40;0.40;;;6.40;99.90;;;;;;4898233;29;20185;-59
2024/03/24 17:46:49;;;;;;;0.40;0.40;;;6.30;99.90;;;;;;4897463;29;20224;-61
2024/03/24 17:49:14;;;;;;;0.40;0.40;;;6.30;99.90;;;;;;4897604;29;20228;-61
2024/03/24 17:51:40;;;;;;;0.40;0.40;;;6.20;99.90;;;;;;4897981;29;20178;-60
2024/03/24 17:54:06;;;;;;;0.40;0.40;;;6.20;99.90;;;;;;4897730;29;20187;-61
2024/03/24 17:56:31;;;;;;;0.40;0.40;;;6.20;99.90;;;;;;4897402;29;20193;-61
2024/03/24 17:58:57;;;;;;;0.40;0.40;;;6.10;99.90;;;;;;4898015;29;20690;-61
2024/03/24 18:01:23;;;;;;;0.40;0.40;;;6.10;99.90;;;;;;4898138;29;20652;-60
2024/03/24 18:03:48;;;;;;;0.40;0.40;;;6.00;99.90;;;;;;4894725;29;20430;-60